sensor_id;sensor_type;location;lat;lon;timestamp;pressure;altitude;pressure_sealevel;temperature;humidity
43312;BME280;30041;48.300;16.352;2023-09-19T00:03:22;99206.94;;;24.68;50.80
43312;BME280;30041;48.300;16.352;2023-09-19T00:05:49;99211.00;;;24.70;50.88
43312;BME280;30041;48.300;16.352;2023-09-19T00:08:21;99211.25;;;24.69;50.76
43312;BME280;30041;48.300;16.352;2023-09-19T00:10:55;99214.78;;;24.69;50.80
43312;BME280;30041;48.300;16.352;2023-09-19T00:13:25;99226.44;;;24.70;50.78
43312;BME280;30041;48.300;16.352;2023-09-19T00:15:51;99238.09;;;24.70;50.76
43312;BME280;30041;48.300;16.352;2023-09-19T00:18:25;99233.75;;;24.64;51.13
43312;BME280;30041;48.300;16.352;2023-09-19T00:20:52;99228.06;;;24.65;50.75
43312;BME280;30041;48.300;16.352;2023-09-19T00:23:18;99227.81;;;24.67;51.00
43312;BME280;30041;48.300;16.352;2023-09-19T00:25:46;99221.53;;;24.67;50.95
43312;BME280;30041;48.300;16.352;2023-09-19T00:28:13;99230.78;;;24.65;51.02
43312;BME280;30041;48.300;16.352;2023-09-19T00:30:42;99231.56;;;24.66;50.84
43312;BME280;30041;48.300;16.352;2023-09-19T00:33:16;99238.63;;;24.67;50.57
43312;BME280;30041;48.300;16.352;2023-09-19T00:36:02;99241.59;;;24.65;50.70
43312;BME280;30041;48.300;16.352;2023-09-19T00:38:34;99251.34;;;24.67;50.95
43312;BME280;30041;48.300;16.352;2023-09-19T00:41:01;99254.06;;;24.67;50.87
43312;BME280;30041;48.300;16.352;2023-09-19T00:43:27;99245.38;;;24.64;51.12
43312;BME280;30041;48.300;16.352;2023-09-19T00:45:55;99248.09;;;24.64;51.06
43312;BME280;30041;48.300;16.352;2023-09-19T00:48:23;99247.03;;;24.65;51.20
43312;BME280;30041;48.300;16.352;2023-09-19T00:50:56;99258.13;;;24.64;51.13
43312;BME280;30041;48.300;16.352;2023-09-19T00:53:24;99245.94;;;24.61;51.23
43312;BME280;30041;48.300;16.352;2023-09-19T00:55:51;99246.75;;;24.62;51.30
43312;BME280;30041;48.300;16.352;2023-09-19T00:58:26;99251.91;;;24.63;51.30
43312;BME280;30041;48.300;16.352;2023-09-19T01:01:04;99242.41;;;24.66;51.05
43312;BME280;30041;48.300;16.352;2023-09-19T01:03:34;99246.22;;;24.65;51.17
43312;BME280;30041;48.300;16.352;2023-09-19T01:06:02;99241.88;;;24.64;51.29
43312;BME280;30041;48.300;16.352;2023-09-19T01:08:37;99256.78;;;24.61;51.38
43312;BME280;30041;48.300;16.352;2023-09-19T01:11:14;99245.38;;;24.64;51.49
43312;BME280;30041;48.300;16.352;2023-09-19T01:17:11;99241.88;;;24.64;51.14
43312;BME280;30041;48.300;16.352;2023-09-19T01:23:25;99255.16;;;24.65;51.41
43312;BME280;30041;48.300;16.352;2023-09-19T01:29:41;99263.81;;;24.62;51.34
43312;BME280;30041;48.300;16.352;2023-09-19T01:32:03;99266.00;;;24.60;51.12
43312;BME280;30041;48.300;16.352;2023-09-19T01:37:16;99276.00;;;24.60;51.46
43312;BME280;30041;48.300;16.352;2023-09-19T01:39:46;99277.63;;;24.61;51.17
43312;BME280;30041;48.300;16.352;2023-09-19T01:47:56;99291.44;;;24.64;51.03
43312;BME280;30041;48.300;16.352;2023-09-19T01:50:49;99294.69;;;24.61;51.14
43312;BME280;30041;48.300;16.352;2023-09-19T01:53:36;99294.69;;;24.61;51.10
43312;BME280;30041;48.300;16.352;2023-09-19T01:56:21;99291.19;;;24.61;51.03
43312;BME280;30041;48.300;16.352;2023-09-19T01:58:54;99286.56;;;24.61;51.07
43312;BME280;30041;48.300;16.352;2023-09-19T02:01:26;99288.72;;;24.59;51.10
43312;BME280;30041;48.300;16.352;2023-09-19T02:04:04;99295.78;;;24.60;51.11
43312;BME280;30041;48.300;16.352;2023-09-19T02:06:44;99292.25;;;24.60;51.04
43312;BME280;30041;48.300;16.352;2023-09-19T02:09:14;99284.97;;;24.60;51.32
43312;BME280;30041;48.300;16.352;2023-09-19T02:11:50;99287.38;;;24.57;51.13
43312;BME280;30041;48.300;16.352;2023-09-19T02:14:17;99288.44;;;24.56;51.35
43312;BME280;30041;48.300;16.352;2023-09-19T02:16:45;99284.91;;;24.55;51.32
43312;BME280;30041;48.300;16.352;2023-09-19T02:19:11;99290.34;;;24.55;51.32
43312;BME280;30041;48.300;16.352;2023-09-19T02:21:42;99286.28;;;24.53;51.43
43312;BME280;30041;48.300;16.352;2023-09-19T02:24:15;99294.69;;;24.56;51.52
43312;BME280;30041;48.300;16.352;2023-09-19T02:26:43;99297.13;;;24.58;51.28
43312;BME280;30041;48.300;16.352;2023-09-19T02:29:09;99285.47;;;24.57;51.17
43312;BME280;30041;48.300;16.352;2023-09-19T02:31:40;99285.47;;;24.57;51.14
43312;BME280;30041;48.300;16.352;2023-09-19T02:34:08;99285.22;;;24.59;51.33
43312;BME280;30041;48.300;16.352;2023-09-19T02:36:36;99282.25;;;24.60;51.49
43312;BME280;30041;48.300;16.352;2023-09-19T02:39:06;99291.44;;;24.59;51.38
43312;BME280;30041;48.300;16.352;2023-09-19T02:41:42;99287.94;;;24.59;51.42
43312;BME280;30041;48.300;16.352;2023-09-19T02:44:11;99289.53;;;24.60;51.23
43312;BME280;30041;48.300;16.352;2023-09-19T02:46:51;99292.53;;;24.58;51.47
43312;BME280;30041;48.300;16.352;2023-09-19T02:49:17;99299.03;;;24.57;51.31
43312;BME280;30041;48.300;16.352;2023-09-19T02:51:50;99303.38;;;24.58;51.43
43312;BME280;30041;48.300;16.352;2023-09-19T02:54:18;99299.56;;;24.59;51.28
43312;BME280;30041;48.300;16.352;2023-09-19T02:56:45;99298.75;;;24.59;51.50
43312;BME280;30041;48.300;16.352;2023-09-19T02:59:15;99285.72;;;24.56;51.49
43312;BME280;30041;48.300;16.352;2023-09-19T03:01:46;99291.69;;;24.53;51.63
43312;BME280;30041;48.300;16.352;2023-09-19T03:04:13;99289.78;;;24.53;51.54
43312;BME280;30041;48.300;16.352;2023-09-19T03:06:41;99288.19;;;24.57;51.54
43312;BME280;30041;48.300;16.352;2023-09-19T03:09:11;99291.44;;;24.54;51.66
43312;BME280;30041;48.300;16.352;2023-09-19T03:11:41;99287.91;;;24.54;51.76
43312;BME280;30041;48.300;16.352;2023-09-19T03:14:18;99293.03;;;24.55;51.35
43312;BME280;30041;48.300;16.352;2023-09-19T03:16:46;99296.84;;;24.54;51.63
43312;BME280;30041;48.300;16.352;2023-09-19T03:19:13;99291.97;;;24.56;51.45
43312;BME280;30041;48.300;16.352;2023-09-19T03:21:53;99297.91;;;24.53;51.42
43312;BME280;30041;48.300;16.352;2023-09-19T03:24:24;99295.22;;;24.53;51.58
43312;BME280;30041;48.300;16.352;2023-09-19T03:26:54;99292.25;;;24.55;51.60
43312;BME280;30041;48.300;16.352;2023-09-19T03:29:27;99300.91;;;24.52;51.74
43312;BME280;30041;48.300;16.352;2023-09-19T03:31:54;99295.75;;;24.55;51.50
43312;BME280;30041;48.300;16.352;2023-09-19T03:34:20;99304.44;;;24.57;51.40
43312;BME280;30041;48.300;16.352;2023-09-19T03:36:51;99308.75;;;24.53;51.57
43312;BME280;30041;48.300;16.352;2023-09-19T03:39:18;99301.16;;;24.50;52.91
43312;BME280;30041;48.300;16.352;2023-09-19T03:41:45;99298.72;;;24.49;52.38
43312;BME280;30041;48.300;16.352;2023-09-19T03:44:11;99301.16;;;24.50;52.19
43312;BME280;30041;48.300;16.352;2023-09-19T03:46:39;99306.03;;;24.53;51.95
43312;BME280;30041;48.300;16.352;2023-09-19T03:49:08;99300.91;;;24.52;52.21
43312;BME280;30041;48.300;16.352;2023-09-19T03:51:35;99295.22;;;24.53;52.03
43312;BME280;30041;48.300;16.352;2023-09-19T03:54:02;99303.06;;;24.50;52.23
43312;BME280;30041;48.300;16.352;2023-09-19T03:56:29;99300.63;;;24.48;52.42
43312;BME280;30041;48.300;16.352;2023-09-19T03:58:56;99305.72;;;24.44;52.82
43312;BME280;30041;48.300;16.352;2023-09-19T04:01:25;99306.25;;;24.36;53.15
43312;BME280;30041;48.300;16.352;2023-09-19T04:03:52;99310.06;;;24.40;53.25
43312;BME280;30041;48.300;16.352;2023-09-19T04:06:21;99311.13;;;24.44;53.23
43312;BME280;30041;48.300;16.352;2023-09-19T04:08:56;99318.50;;;24.49;53.06
43312;BME280;30041;48.300;16.352;2023-09-19T04:11:26;99320.94;;;24.51;52.87
43312;BME280;30041;48.300;16.352;2023-09-19T04:13:55;99328.50;;;24.49;53.16
43312;BME280;30041;48.300;16.352;2023-09-19T04:16:23;99334.75;;;24.49;52.99
43312;BME280;30041;48.300;16.352;2023-09-19T04:18:50;99343.16;;;24.48;53.20
43312;BME280;30041;48.300;16.352;2023-09-19T04:21:21;99342.31;;;24.47;53.10
43312;BME280;30041;48.300;16.352;2023-09-19T04:23:52;99343.16;;;24.48;53.26
43312;BME280;30041;48.300;16.352;2023-09-19T04:26:20;99340.16;;;24.49;53.22
43312;BME280;30041;48.300;16.352;2023-09-19T04:28:47;99351.00;;;24.49;53.22
43312;BME280;30041;48.300;16.352;2023-09-19T04:31:14;99350.44;;;24.47;53.23
43312;BME280;30041;48.300;16.352;2023-09-19T04:33:43;99361.56;;;24.51;53.26
43312;BME280;30041;48.300;16.352;2023-09-19T04:36:10;99352.91;;;24.49;53.15
43312;BME280;30041;48.300;16.352;2023-09-19T04:38:50;99370.25;;;24.48;53.24
43312;BME280;30041;48.300;16.352;2023-09-19T04:41:19;99369.41;;;24.47;53.20
43312;BME280;30041;48.300;16.352;2023-09-19T04:44:06;99366.94;;;24.45;53.21
43312;BME280;30041;48.300;16.352;2023-09-19T04:46:49;99372.94;;;24.48;53.29
43312;BME280;30041;48.300;16.352;2023-09-19T04:49:19;99379.72;;;24.50;53.07
43312;BME280;30041;48.300;16.352;2023-09-19T04:51:47;99380.78;;;24.49;53.09
43312;BME280;30041;48.300;16.352;2023-09-19T04:54:16;99379.72;;;24.50;53.24
43312;BME280;30041;48.300;16.352;2023-09-19T04:56:52;99381.88;;;24.48;52.89
43312;BME280;30041;48.300;16.352;2023-09-19T04:59:18;99385.34;;;24.43;53.09
43312;BME280;30041;48.300;16.352;2023-09-19T05:01:45;99381.84;;;24.43;53.18
43312;BME280;30041;48.300;16.352;2023-09-19T05:04:13;99387.81;;;24.45;53.22
43312;BME280;30041;48.300;16.352;2023-09-19T05:06:40;99383.47;;;24.44;53.08
43312;BME280;30041;48.300;16.352;2023-09-19T05:09:08;99393.78;;;24.47;52.99
43312;BME280;30041;48.300;16.352;2023-09-19T05:11:35;99397.00;;;24.44;53.04
43312;BME280;30041;48.300;16.352;2023-09-19T05:14:05;99400.25;;;24.46;52.96
43312;BME280;30041;48.300;16.352;2023-09-19T05:16:33;99403.56;;;24.48;52.81
43312;BME280;30041;48.300;16.352;2023-09-19T05:19:01;99407.88;;;24.49;53.00
43312;BME280;30041;48.300;16.352;2023-09-19T05:21:40;99407.59;;;24.45;52.74
43312;BME280;30041;48.300;16.352;2023-09-19T05:24:14;99414.91;;;24.45;52.83
43312;BME280;30041;48.300;16.352;2023-09-19T05:26:44;99416.22;;;24.42;52.79
43312;BME280;30041;48.300;16.352;2023-09-19T05:29:11;99409.72;;;24.43;52.65
43312;BME280;30041;48.300;16.352;2023-09-19T05:31:45;99414.06;;;24.44;52.65
43312;BME280;30041;48.300;16.352;2023-09-19T05:34:12;99409.47;;;24.45;52.68
43312;BME280;30041;48.300;16.352;2023-09-19T05:36:39;99409.47;;;24.45;52.67
43312;BME280;30041;48.300;16.352;2023-09-19T05:39:10;99414.59;;;24.41;52.77
43312;BME280;30041;48.300;16.352;2023-09-19T05:41:37;99415.94;;;24.39;52.61
43312;BME280;30041;48.300;16.352;2023-09-19T05:44:06;99421.44;;;24.49;55.12
43312;BME280;30041;48.300;16.352;2023-09-19T05:46:33;99416.59;;;24.14;55.79
43312;BME280;30041;48.300;16.352;2023-09-19T05:49:18;99418.41;;;24.03;55.87
43312;BME280;30041;48.300;16.352;2023-09-19T05:51:48;99415.47;;;24.05;55.51
43312;BME280;30041;48.300;16.352;2023-09-19T05:54:19;99421.09;;;23.98;55.83
43312;BME280;30041;48.300;16.352;2023-09-19T05:56:47;99420.75;;;23.89;55.80
43312;BME280;30041;48.300;16.352;2023-09-19T05:59:22;99422.94;;;23.92;55.34
43312;BME280;30041;48.300;16.352;2023-09-19T06:01:55;99422.34;;;23.85;55.09
43312;BME280;30041;48.300;16.352;2023-09-19T06:04:27;99412.25;;;23.75;55.25
43312;BME280;30041;48.300;16.352;2023-09-19T06:06:56;99418.94;;;23.73;55.37
43312;BME280;30041;48.300;16.352;2023-09-19T06:09:23;99424.88;;;23.70;55.26
43312;BME280;30041;48.300;16.352;2023-09-19T06:11:50;99428.13;;;23.67;55.62
43312;BME280;30041;48.300;16.352;2023-09-19T06:14:21;99430.00;;;23.66;55.33
43312;BME280;30041;48.300;16.352;2023-09-19T06:16:48;99429.94;;;23.61;55.72
43312;BME280;30041;48.300;16.352;2023-09-19T06:19:22;99427.25;;;23.61;55.31
43312;BME280;30041;48.300;16.352;2023-09-19T06:21:49;99434.06;;;23.69;55.43
43312;BME280;30041;48.300;16.352;2023-09-19T06:24:27;99432.91;;;23.59;55.36
43312;BME280;30041;48.300;16.352;2023-09-19T06:26:55;99431.53;;;23.57;55.58
43312;BME280;30041;48.300;16.352;2023-09-19T06:29:23;99439.09;;;23.55;55.58
43312;BME280;30041;48.300;16.352;2023-09-19T06:31:57;99436.59;;;23.48;55.91
43312;BME280;30041;48.300;16.352;2023-09-19T06:34:24;99437.97;;;23.51;55.17
43312;BME280;30041;48.300;16.352;2023-09-19T06:36:52;99440.66;;;23.51;55.04
43312;BME280;30041;48.300;16.352;2023-09-19T06:39:28;99439.84;;;23.50;54.94
43312;BME280;30041;48.300;16.352;2023-09-19T06:41:54;99445.50;;;23.49;55.14
43312;BME280;30041;48.300;16.352;2023-09-19T06:44:21;99447.97;;;23.50;55.39
43312;BME280;30041;48.300;16.352;2023-09-19T06:46:48;99453.38;;;23.50;55.07
43312;BME280;30041;48.300;16.352;2023-09-19T06:49:14;99450.66;;;23.50;55.05
43312;BME280;30041;48.300;16.352;2023-09-19T06:51:41;99457.97;;;23.50;55.00
43312;BME280;30041;48.300;16.352;2023-09-19T06:54:12;99465.84;;;23.51;54.66
43312;BME280;30041;48.300;16.352;2023-09-19T06:56:40;99460.69;;;23.50;54.28
43312;BME280;30041;48.300;16.352;2023-09-19T06:59:09;99464.19;;;23.50;54.35
43312;BME280;30041;48.300;16.352;2023-09-19T07:01:37;99460.94;;;23.48;54.58
43312;BME280;30041;48.300;16.352;2023-09-19T07:04:08;99467.16;;;23.49;54.44
43312;BME280;30041;48.300;16.352;2023-09-19T07:06:34;99471.75;;;23.48;54.26
43312;BME280;30041;48.300;16.352;2023-09-19T07:09:05;99471.50;;;23.50;54.21
43312;BME280;30041;48.300;16.352;2023-09-19T07:11:32;99472.03;;;23.47;54.46
43312;BME280;30041;48.300;16.352;2023-09-19T07:13:59;99472.56;;;23.49;53.95
43312;BME280;30041;48.300;16.352;2023-09-19T07:16:25;99470.69;;;23.49;54.15
43312;BME280;30041;48.300;16.352;2023-09-19T07:18:54;99475.53;;;23.47;54.25
43312;BME280;30041;48.300;16.352;2023-09-19T07:21:21;99473.06;;;23.46;54.46
43312;BME280;30041;48.300;16.352;2023-09-19T07:23:48;99473.06;;;23.46;54.24
43312;BME280;30041;48.300;16.352;2023-09-19T07:26:14;99478.25;;;23.47;54.34
43312;BME280;30041;48.300;16.352;2023-09-19T07:28:44;99483.91;;;23.46;54.34
43312;BME280;30041;48.300;16.352;2023-09-19T07:31:16;99490.88;;;23.41;54.45
43312;BME280;30041;48.300;16.352;2023-09-19T07:33:43;99499.84;;;23.42;54.65
43312;BME280;30041;48.300;16.352;2023-09-19T07:36:20;99496.28;;;23.41;54.16
43312;BME280;30041;48.300;16.352;2023-09-19T07:38:46;99494.16;;;23.44;54.16
43312;BME280;30041;48.300;16.352;2023-09-19T07:41:12;99503.34;;;23.42;54.42
43312;BME280;30041;48.300;16.352;2023-09-19T07:43:38;99509.56;;;23.43;54.21
43312;BME280;30041;48.300;16.352;2023-09-19T07:46:06;99509.81;;;23.41;54.07
43312;BME280;30041;48.300;16.352;2023-09-19T07:48:34;99513.59;;;23.40;54.30
43312;BME280;30041;48.300;16.352;2023-09-19T07:51:07;99514.38;;;23.36;54.59
43312;BME280;30041;48.300;16.352;2023-09-19T07:53:34;99510.91;;;23.40;54.66
43312;BME280;30041;48.300;16.352;2023-09-19T07:56:09;99514.66;;;23.39;54.26
43312;BME280;30041;48.300;16.352;2023-09-19T07:58:38;99519.00;;;23.40;54.45
43312;BME280;30041;48.300;16.352;2023-09-19T08:01:09;99520.63;;;23.41;54.13
43312;BME280;30041;48.300;16.352;2023-09-19T08:03:38;99526.03;;;23.41;54.29
43312;BME280;30041;48.300;16.352;2023-09-19T08:06:10;99531.16;;;23.38;54.38
43312;BME280;30041;48.300;16.352;2023-09-19T08:08:37;99528.19;;;23.39;54.33
43312;BME280;30041;48.300;16.352;2023-09-19T08:11:05;99540.06;;;23.38;54.37
43312;BME280;30041;48.300;16.352;2023-09-19T08:13:33;99533.91;;;23.43;54.35
43312;BME280;30041;48.300;16.352;2023-09-19T08:16:04;99537.69;;;23.42;54.25
43312;BME280;30041;48.300;16.352;2023-09-19T08:18:31;99545.25;;;23.40;54.34
43312;BME280;30041;48.300;16.352;2023-09-19T08:20:57;99539.84;;;23.40;54.42
43312;BME280;30041;48.300;16.352;2023-09-19T08:23:24;99540.94;;;23.44;54.23
43312;BME280;30041;48.300;16.352;2023-09-19T08:25:57;99539.06;;;23.45;54.02
43312;BME280;30041;48.300;16.352;2023-09-19T08:28:23;99551.28;;;23.47;54.13
43312;BME280;30041;48.300;16.352;2023-09-19T08:30:50;99550.13;;;23.43;54.54
43312;BME280;30041;48.300;16.352;2023-09-19T08:33:17;99547.44;;;23.43;54.09
43312;BME280;30041;48.300;16.352;2023-09-19T08:35:44;99558.00;;;23.45;54.46
43312;BME280;30041;48.300;16.352;2023-09-19T08:38:11;99572.09;;;23.47;54.48
43312;BME280;30041;48.300;16.352;2023-09-19T08:40:38;99571.25;;;23.46;54.13
43312;BME280;30041;48.300;16.352;2023-09-19T08:43:05;99572.59;;;23.44;54.19
43312;BME280;30041;48.300;16.352;2023-09-19T08:45:35;99580.47;;;23.45;54.14
43312;BME280;30041;48.300;16.352;2023-09-19T08:48:32;99587.47;;;23.46;54.33
43312;BME280;30041;48.300;16.352;2023-09-19T08:54:06;99590.38;;;23.39;54.33
43312;BME280;30041;48.300;16.352;2023-09-19T08:56:34;99592.78;;;23.36;54.48
43312;BME280;30041;48.300;16.352;2023-09-19T08:59:06;99590.38;;;23.39;54.18
43312;BME280;30041;48.300;16.352;2023-09-19T09:01:36;99596.69;;;23.45;54.07
43312;BME280;30041;48.300;16.352;2023-09-19T09:04:04;99593.28;;;23.55;53.88
43312;BME280;30041;48.300;16.352;2023-09-19T09:06:34;99589.25;;;23.57;53.88
43312;BME280;30041;48.300;16.352;2023-09-19T09:09:03;99587.94;;;23.60;53.88
43312;BME280;30041;48.300;16.352;2023-09-19T09:11:29;99597.69;;;23.61;53.49
43312;BME280;30041;48.300;16.352;2023-09-19T09:13:58;99600.16;;;23.62;53.71
43312;BME280;30041;48.300;16.352;2023-09-19T09:16:29;99597.44;;;23.62;53.46
43312;BME280;30041;48.300;16.352;2023-09-19T09:18:55;99612.84;;;23.62;53.45
43312;BME280;30041;48.300;16.352;2023-09-19T09:21:31;99603.66;;;23.63;53.66
43312;BME280;30041;48.300;16.352;2023-09-19T09:23:58;99601.53;;;23.65;53.53
43312;BME280;30041;48.300;16.352;2023-09-19T09:26:45;99608.81;;;23.65;53.38
43312;BME280;30041;48.300;16.352;2023-09-19T09:29:12;99604.78;;;23.67;53.37
43312;BME280;30041;48.300;16.352;2023-09-19T09:31:42;99595.59;;;23.68;53.49
43312;BME280;30041;48.300;16.352;2023-09-19T09:34:09;99602.66;;;23.69;53.25
43312;BME280;30041;48.300;16.352;2023-09-19T09:36:39;99602.91;;;23.68;53.15
43312;BME280;30041;48.300;16.352;2023-09-19T09:39:09;99595.59;;;23.68;53.48
43312;BME280;30041;48.300;16.352;2023-09-19T09:41:41;99596.16;;;23.70;53.33
43312;BME280;30041;48.300;16.352;2023-09-19T09:44:18;99598.63;;;23.72;53.21
43312;BME280;30041;48.300;16.352;2023-09-19T09:46:48;99607.06;;;23.75;52.98
43312;BME280;30041;48.300;16.352;2023-09-19T09:49:23;99607.06;;;23.75;52.81
43312;BME280;30041;48.300;16.352;2023-09-19T09:52:11;99604.94;;;23.77;53.12
43312;BME280;30041;48.300;16.352;2023-09-19T09:54:37;99612.22;;;23.77;52.80
43312;BME280;30041;48.300;16.352;2023-09-19T09:57:07;99603.31;;;23.76;52.89
43312;BME280;30041;48.300;16.352;2023-09-19T09:59:56;99602.72;;;23.74;52.89
43312;BME280;30041;48.300;16.352;2023-09-19T10:02:38;99608.72;;;23.76;53.00
43312;BME280;30041;48.300;16.352;2023-09-19T10:05:25;99604.94;;;23.77;53.30
43312;BME280;30041;48.300;16.352;2023-09-19T10:07:54;99600.34;;;23.78;53.31
43312;BME280;30041;48.300;16.352;2023-09-19T10:10:34;99603.88;;;23.78;53.32
43312;BME280;30041;48.300;16.352;2023-09-19T10:13:02;99604.16;;;23.82;53.01
43312;BME280;30041;48.300;16.352;2023-09-19T10:15:32;99601.56;;;23.92;52.73
43312;BME280;30041;48.300;16.352;2023-09-19T10:18:04;99593.56;;;24.02;52.64
43312;BME280;30041;48.300;16.352;2023-09-19T10:20:32;99604.25;;;24.14;52.60
43312;BME280;30041;48.300;16.352;2023-09-19T10:23:13;99596.97;;;24.20;52.18
43312;BME280;30041;48.300;16.352;2023-09-19T10:25:43;99598.09;;;24.24;51.88
43312;BME280;30041;48.300;16.352;2023-09-19T10:28:14;99595.69;;;24.28;52.17
43312;BME280;30041;48.300;16.352;2023-09-19T10:30:50;99603.28;;;24.31;51.86
43312;BME280;30041;48.300;16.352;2023-09-19T10:33:21;99605.75;;;24.32;52.01
43312;BME280;30041;48.300;16.352;2023-09-19T10:35:53;99602.53;;;24.35;51.65
43312;BME280;30041;48.300;16.352;2023-09-19T10:38:28;99606.06;;;24.36;51.93
43312;BME280;30041;48.300;16.352;2023-09-19T10:40:58;99602.03;;;24.38;51.77
43312;BME280;30041;48.300;16.352;2023-09-19T10:46:18;99599.59;;;24.42;51.71
43312;BME280;30041;48.300;16.352;2023-09-19T10:48:54;99593.94;;;24.43;51.66
43312;BME280;30041;48.300;16.352;2023-09-19T10:51:36;99607.22;;;24.45;51.92
43312;BME280;30041;48.300;16.352;2023-09-19T10:54:41;99609.94;;;24.45;51.60
43312;BME280;30041;48.300;16.352;2023-09-19T10:57:29;99610.25;;;24.49;51.54
43312;BME280;30041;48.300;16.352;2023-09-19T11:03:54;99599.97;;;24.51;51.43
43312;BME280;30041;48.300;16.352;2023-09-19T11:09:22;99608.41;;;24.54;51.62
43312;BME280;30041;48.300;16.352;2023-09-19T11:12:00;99608.13;;;24.56;51.51
43312;BME280;30041;48.300;16.352;2023-09-19T11:14:44;99599.75;;;24.57;51.61
43312;BME280;30041;48.300;16.352;2023-09-19T11:40:10;99591.66;;;24.62;51.44
43312;BME280;30041;48.300;16.352;2023-09-19T11:46:14;99575.97;;;24.64;51.49
43312;BME280;30041;48.300;16.352;2023-09-19T11:48:49;99581.13;;;24.66;51.20
43312;BME280;30041;48.300;16.352;2023-09-19T11:51:27;99581.13;;;24.66;51.47
43312;BME280;30041;48.300;16.352;2023-09-19T11:54:14;99578.41;;;24.66;51.31
43312;BME280;30041;48.300;16.352;2023-09-19T11:56:53;99584.66;;;24.67;51.46
43312;BME280;30041;48.300;16.352;2023-09-19T11:59:24;99567.06;;;24.69;51.26
43312;BME280;30041;48.300;16.352;2023-09-19T12:04:42;99578.72;;;24.70;51.36
43312;BME280;30041;48.300;16.352;2023-09-19T12:07:21;99577.63;;;24.71;51.46
43312;BME280;30041;48.300;16.352;2023-09-19T12:10:08;99567.59;;;24.71;51.51
43312;BME280;30041;48.300;16.352;2023-09-19T12:12:37;99580.91;;;24.73;51.33
43312;BME280;30041;48.300;16.352;2023-09-19T12:15:03;99582.53;;;24.74;51.21
43312;BME280;30041;48.300;16.352;2023-09-19T12:20:29;99601.50;;;24.74;51.42
43312;BME280;30041;48.300;16.352;2023-09-19T12:23:15;99596.91;;;24.74;51.39
43312;BME280;30041;48.300;16.352;2023-09-19T12:25:45;99587.44;;;24.77;51.33
43312;BME280;30041;48.300;16.352;2023-09-19T12:28:26;99596.63;;;24.76;51.35
43312;BME280;30041;48.300;16.352;2023-09-19T12:31:06;99584.75;;;24.77;51.15
43312;BME280;30041;48.300;16.352;2023-09-19T12:33:38;99589.63;;;24.80;51.40
43312;BME280;30041;48.300;16.352;2023-09-19T12:36:25;99600.47;;;24.80;51.43
43312;BME280;30041;48.300;16.352;2023-09-19T12:38:54;99611.06;;;24.81;51.25
43312;BME280;30041;48.300;16.352;2023-09-19T12:41:26;99620.81;;;24.82;51.36
43312;BME280;30041;48.300;16.352;2023-09-19T12:46:48;99617.28;;;24.82;51.52
43312;BME280;30041;48.300;16.352;2023-09-19T12:50:11;99618.38;;;24.81;51.43
43312;BME280;30041;48.300;16.352;2023-09-19T12:58:28;99635.19;;;24.83;51.36
43312;BME280;30041;48.300;16.352;2023-09-19T13:01:26;99631.41;;;24.84;51.31
43312;BME280;30041;48.300;16.352;2023-09-19T13:06:36;99629.50;;;24.84;51.39
43312;BME280;30041;48.300;16.352;2023-09-19T13:09:18;99639.53;;;24.84;51.06
43312;BME280;30041;48.300;16.352;2023-09-19T13:11:44;99635.75;;;24.85;51.19
43312;BME280;30041;48.300;16.352;2023-09-19T13:14:29;99643.06;;;24.84;51.26
43312;BME280;30041;48.300;16.352;2023-09-19T13:17:02;99660.16;;;24.85;51.32
43312;BME280;30041;48.300;16.352;2023-09-19T13:19:51;99627.63;;;24.85;51.29
43312;BME280;30041;48.300;16.352;2023-09-19T13:22:44;99630.06;;;24.86;51.32
43312;BME280;30041;48.300;16.352;2023-09-19T13:25:18;99623.81;;;24.86;51.31
43312;BME280;30041;48.300;16.352;2023-09-19T13:27:49;99636.28;;;24.87;51.35
43312;BME280;30041;48.300;16.352;2023-09-19T13:30:15;99639.84;;;24.88;51.21
43312;BME280;30041;48.300;16.352;2023-09-19T13:32:41;99646.06;;;24.88;51.18
43312;BME280;30041;48.300;16.352;2023-09-19T13:35:08;99643.34;;;24.88;51.19
43312;BME280;30041;48.300;16.352;2023-09-19T13:37:34;99639.84;;;24.88;51.26
43312;BME280;30041;48.300;16.352;2023-09-19T13:40:00;99639.00;;;24.87;51.29
43312;BME280;30041;48.300;16.352;2023-09-19T13:42:26;99633.56;;;24.87;51.07
43312;BME280;30041;48.300;16.352;2023-09-19T13:44:52;99631.72;;;24.88;51.14
43312;BME280;30041;48.300;16.352;2023-09-19T13:47:18;99631.44;;;24.89;51.14
43312;BME280;30041;48.300;16.352;2023-09-19T13:49:44;99624.13;;;24.90;51.15
43312;BME280;30041;48.300;16.352;2023-09-19T13:52:10;99627.66;;;24.90;51.25
43312;BME280;30041;48.300;16.352;2023-09-19T13:54:36;99624.13;;;24.90;51.20
43312;BME280;30041;48.300;16.352;2023-09-19T13:57:02;99627.66;;;24.90;51.15
43312;BME280;30041;48.300;16.352;2023-09-19T13:59:28;99622.22;;;24.90;51.24
43312;BME280;30041;48.300;16.352;2023-09-19T14:01:54;99618.44;;;24.91;51.24
43312;BME280;30041;48.300;16.352;2023-09-19T14:04:20;99626.56;;;24.91;51.18
43312;BME280;30041;48.300;16.352;2023-09-19T14:06:47;99623.59;;;24.93;51.45
43312;BME280;30041;48.300;16.352;2023-09-19T14:09:13;99613.84;;;24.92;51.11
43312;BME280;30041;48.300;16.352;2023-09-19T14:11:39;99618.19;;;24.93;51.38
43312;BME280;30041;48.300;16.352;2023-09-19T14:14:08;99608.16;;;24.93;51.27
43312;BME280;30041;48.300;16.352;2023-09-19T14:16:34;99612.75;;;24.93;51.43
43312;BME280;30041;48.300;16.352;2023-09-19T14:19:00;99614.38;;;24.94;51.02
43312;BME280;30041;48.300;16.352;2023-09-19T14:21:26;99619.00;;;24.93;51.23
43312;BME280;30041;48.300;16.352;2023-09-19T14:23:52;99612.50;;;24.94;51.04
43312;BME280;30041;48.300;16.352;2023-09-19T14:26:18;99609.50;;;24.96;51.19
43312;BME280;30041;48.300;16.352;2023-09-19T14:28:44;99614.94;;;24.96;51.21